Plano's Hourly Summary for Saturday, July 7, 2018
Hour Temp
(f)
RH
(%)
Solar Rad.
(MJ/m2)
Rainfall
(in)
Wind
(mph)
7/7/2018 12:00 AM 79 65 0 0 0.5
7/7/2018 1:00 AM 78 69 0 0 0.06
7/7/2018 2:00 AM 77 72 0 0 0.04
7/7/2018 3:00 AM 76 74 0 0 0.05
7/7/2018 4:00 AM 75 78 0 0 0.04
7/7/2018 5:00 AM 73 82 0 0 0
7/7/2018 6:00 AM 73 83 0 0 0
7/7/2018 7:00 AM 73 83 0.03 0 0
7/7/2018 8:00 AM 74 73 0.3 0 0.05
7/7/2018 9:00 AM 79 64 1 0 0.35
7/7/2018 10:00 AM 82 60 1.65 0 1
7/7/2018 11:00 AM 84 57 2.26 0 1.34
7/7/2018 12:00 PM 87 54 2.54 0 1.14
7/7/2018 1:00 PM 90 46 2.77 0 0.1
7/7/2018 2:00 PM 92 44 2.57 0 1.26
7/7/2018 3:00 PM 93 39 2.93 0 1.7
7/7/2018 4:00 PM 95 36 2.87 0 1.4
7/7/2018 5:00 PM 95 34 1.99 0 1.25
7/7/2018 6:00 PM 95 34 1.74 0 1.81
7/7/2018 7:00 PM 93 39 1.16 0 2.18
7/7/2018 8:00 PM 89 39 0.21 0 1.71
7/7/2018 9:00 PM 88 45 0.04 0 1.02
7/7/2018 10:00 PM 86 48 0 0 1.71
7/7/2018 11:00 PM 83 54 0 0 1.03
Data Summary 83 57 24.06 0.00 0.82